• Join FlightAware (Why Join?)
  • Login
  • US Flag 
04:38AM EDT


 

Airport Tracker/Info


-or-


 

Live Flight TrackerFlight Track Log ✈ N45NS ✈ 30-Oct-2013 ✈ KBJJ - KSAT

Flight Track Log - Related Links

Times and Time Zones

All times are in EDT time to prevent confusion due to time zone crossing. See the N45NS flight status page for this flight to view local times or setup timezone preferences in your user account.

Time Position Orientation Groundspeed Altitude Reporting Facility
EDT Latitude Longitude Course Direction KTS MPH feet Rate Location/Type
12:37PM 40.8600 -81.9347 235° Southwest 200 230 2,600  Level Cleveland Center
12:38PM 40.7886 -81.9231 173° South 263 303 5,300 1,800 Climbing Cleveland Center
12:39PM 40.7231 -81.9681 207° Southwest 269 310 6,400 1,920 Climbing Cleveland Center
12:40PM 40.6658 -82.0347 221° Southwest 269 310 9,300 2,760 Climbing Cleveland Center
12:41PM 40.6106 -82.1253 231° Southwest 266 306 12,200 2,640 Climbing Indianapolis Center
12:42PM 40.5589 -82.2106 231° Southwest 290 334 14,800 2,340 Climbing Indianapolis Center
12:43PM 40.4907 -82.6090 235° Southwest  Level Estimated
12:43PM 40.5053 -82.2969 231° Southwest 300 345 17,100  Level Indianapolis Center
12:45PM 40.4500 -82.3867 231° Southwest 309 356 19,000 2,040 Climbing Indianapolis Center
12:46PM 40.3933 -82.4783 231° Southwest 317 365 21,400 2,040 Climbing Indianapolis Center
12:47PM 40.3358 -82.5697 230° Southwest 322 371 23,300 1,620 Climbing Indianapolis Center
12:48PM 40.2769 -82.6653 231° Southwest 332 382 24,800 1,560 Climbing Indianapolis Center
12:49PM 40.2061 -82.7778 231° Southwest 343 395 26,600 1,860 Climbing Indianapolis Center
12:50PM 40.1456 -82.8742 231° Southwest 343 395 28,700 1,800 Climbing Indianapolis Center
12:51PM 40.0861 -82.9692 231° Southwest 339 390 30,400 1,560 Climbing Indianapolis Center
12:52PM 40.0258 -83.0644 230° Southwest 341 392 32,000 1,740 Climbing Indianapolis Center
12:53PM 39.9672 -83.1567 230° Southwest 334 384 34,000 1,740 Climbing Indianapolis Center
12:54PM 39.9106 -83.2458 230° Southwest 323 372 35,600 1,440 Climbing Indianapolis Center
12:55PM 39.8544 -83.3339 230° Southwest 316 364 37,000 1,320 Climbing Indianapolis Center
12:56PM 39.7953 -83.4269 230° Southwest 309 356 38,400 1,200 Climbing Indianapolis Center
12:57PM 39.7414 -83.5114 230° Southwest 304 350 39,500 720 Climbing Indianapolis Center
12:58PM 39.6750 -83.6139 230° Southwest 311 358 40,000 240 Climbing Indianapolis Center
12:59PM 39.6158 -83.7058 230° Southwest 323 372 40,000  Level Indianapolis Center
01:00PM 39.5511 -83.8050 230° Southwest 348 400 40,000  Level Indianapolis Center
01:01PM 39.4847 -83.9086 230° Southwest 368 423 40,000  Level Indianapolis Center
01:02PM 39.4178 -84.0108 230° Southwest 373 429 40,000  Level Indianapolis Center
01:03PM 39.3503 -84.1147 230° Southwest 377 434 40,000  Level Indianapolis Center
01:04PM 39.2697 -84.2386 230° Southwest 377 434 40,000  Level Indianapolis Center
01:05PM 39.2014 -84.3417 229° Southwest 378 435 40,000  Level Indianapolis Center
01:06PM 39.1353 -84.4422 230° Southwest 371 427 40,000  Level Indianapolis Center
01:07PM 39.0683 -84.5422 229° Southwest 370 426 40,000  Level Indianapolis Center
01:08PM 39.0033 -84.6414 230° Southwest 365 420 40,000  Level Indianapolis Center
01:09PM 38.9378 -84.7386 229° Southwest 361 415 40,000  Level Indianapolis Center
01:10PM 38.8622 -84.8536 230° Southwest 358 412 40,000  Level Indianapolis Center
01:11PM 38.7972 -84.9506 229° Southwest 358 412 40,000  Level Indianapolis Center
01:12PM 38.7319 -85.0453 229° Southwest 357 411 40,000  Level Indianapolis Center
01:13PM 38.6675 -85.1422 230° Southwest 357 411 40,000  Level Indianapolis Center
01:14PM 38.5975 -85.2461 229° Southwest 356 410 40,000  Level Indianapolis Center
01:15PM 38.5319 -85.3422 229° Southwest 357 411 40,000  Level Indianapolis Center
01:17PM 38.4669 -85.4372 229° Southwest 356 410 40,000  Level Indianapolis Center
01:18PM 38.4025 -85.5319 229° Southwest 352 405 40,000  Level Indianapolis Center
01:19PM 38.3378 -85.6258 229° Southwest 352 405 40,000  Level Indianapolis Center
01:20PM 38.2725 -85.7200 229° Southwest 353 406 40,000  Level Indianapolis Center
01:21PM 38.1961 -85.8325 229° Southwest 349 402 40,000  Level Indianapolis Center
01:22PM 38.1308 -85.9261 228° Southwest 351 404 40,000  Level Indianapolis Center
01:23PM 38.0650 -86.0194 228° Southwest 352 405 40,000  Level Indianapolis Center
01:24PM 38.0000 -86.1139 229° Southwest 353 406 40,000  Level Indianapolis Center
01:25PM 37.9344 -86.2078 228° Southwest 354 407 40,000  Level Indianapolis Center
01:26PM 37.8689 -86.3025 229° Southwest 355 409 40,000  Level Indianapolis Center
01:27PM 37.8036 -86.3958 229° Southwest 355 409 40,000  Level Indianapolis Center
01:28PM 37.7253 -86.5056 228° Southwest 357 411 40,000  Level Indianapolis Center
01:29PM 37.6697 -86.5844 228° Southwest 355 409 40,000  Level Indianapolis Center
01:30PM 37.5897 -86.6969 228° Southwest 356 410 40,000  Level Indianapolis Center
01:31PM 37.5275 -86.7867 229° Southwest 354 407 40,000  Level Indianapolis Center
01:32PM 37.4614 -86.8786 228° Southwest 352 405 40,000  Level Indianapolis Center
01:33PM 37.3956 -86.9708 228° Southwest 352 405 40,000  Level Indianapolis Center
01:34PM 37.3300 -87.0622 228° Southwest 350 403 40,000  Level Indianapolis Center
01:35PM 37.2642 -87.1539 228° Southwest 351 404 40,000  Level Indianapolis Center
01:36PM 37.1881 -87.2589 228° Southwest 347 399 40,000  Level Indianapolis Center
01:37PM 37.1208 -87.3517 228° Southwest 353 406 40,000  Level Indianapolis Center
01:38PM 37.0661 -87.4322 230° Southwest 353 406 40,000  Level Memphis Center
01:39PM 36.9994 -87.5203 227° Southwest 353 406 40,000  Level Memphis Center
01:40PM 36.9347 -87.6108 228° Southwest 353 406 40,000  Level Memphis Center
01:41PM 36.8700 -87.7014 228° Southwest 353 406 40,000  Level Memphis Center
01:42PM 36.8053 -87.7917 228° Southwest 353 406 40,000  Level Memphis Center
01:43PM 36.7425 -87.8789 228° Southwest 353 406 40,000  Level Memphis Center
01:44PM 36.6753 -87.9639 225° Southwest 348 400 40,000  Level Memphis Center
01:45PM 36.6083 -88.0589 229° Southwest 342 394 40,000  Level Memphis Center
01:46PM 36.5453 -88.1383 225° Southwest 331 381 40,000  Level Memphis Center
01:47PM 36.4861 -88.2172 227° Southwest 326 375 40,000  Level Memphis Center
01:48PM 36.4250 -88.2989 227° Southwest 326 375 40,000  Level Memphis Center
01:49PM 36.3658 -88.3803 228° Southwest 326 375 40,000  Level Memphis Center
01:50PM 36.3067 -88.4589 227° Southwest 326 375 40,000  Level Memphis Center
01:51PM 36.2453 -88.5375 226° Southwest 326 375 40,000  Level Memphis Center
01:52PM 36.1858 -88.6161 227° Southwest 326 375 40,000  Level Memphis Center
01:53PM 36.1264 -88.6919 226° Southwest 326 375 40,000  Level Memphis Center
01:54PM 36.0650 -88.7728 227° Southwest 326 375 40,000  Level Memphis Center
01:55PM 36.0056 -88.8533 228° Southwest 326 375 40,000  Level Memphis Center
01:56PM 35.9461 -88.9339 228° Southwest 326 375 40,000  Level Memphis Center
01:57PM 35.8822 -89.0119 225° Southwest 326 375 40,000  Level Memphis Center
01:58PM 35.8289 -89.0844 228° Southwest 326 375 40,000  Level Memphis Center
01:59PM 35.7692 -89.1647 227° Southwest 326 375 40,000  Level Memphis Center
02:00PM 35.7053 -89.2450 226° Southwest 326 375 40,000  Level Memphis Center
02:01PM 35.6539 -89.3247 232° Southwest 313 360 40,000  Level Memphis Center
02:02PM 35.5919 -89.4022 226° Southwest 318 366 40,000  Level Memphis Center
02:03PM 35.5300 -89.4819 226° Southwest 318 366 40,000  Level Memphis Center
02:04PM 35.4636 -89.5694 227° Southwest 318 366 40,000  Level Memphis Center
02:05PM 35.4036 -89.6464 226° Southwest 318 366 40,000  Level Memphis Center
02:06PM 35.3436 -89.7258 227° Southwest 318 366 40,000  Level Memphis Center
02:07PM 35.2814 -89.8050 226° Southwest 318 366 40,000  Level Memphis Center
02:08PM 35.2233 -89.8844 228° Southwest 318 366 40,000  Level Memphis Center
02:09PM 35.1589 -89.9658 226° Southwest 318 366 40,000  Level Memphis Center
02:10PM 35.0986 -90.0450 227° Southwest 318 366 40,000  Level Memphis Center
02:11PM 35.0364 -90.1236 226° Southwest 318 366 40,000  Level Memphis Center
02:12PM 34.9739 -90.2025 226° Southwest 318 366 40,000  Level Memphis Center
02:13PM 34.9092 -90.2836 226° Southwest 323 372 40,000  Level Memphis Center
02:14PM 34.8447 -90.3622 225° Southwest 323 372 40,000  Level Memphis Center
02:15PM 34.7819 -90.4406 226° Southwest 328 377 40,000  Level Memphis Center
02:16PM 34.7172 -90.5214 226° Southwest 328 377 40,000  Level Memphis Center
02:17PM 34.6567 -90.5994 227° Southwest 328 377 40,000  Level Memphis Center
02:18PM 34.5897 -90.6800 225° Southwest 328 377 40,000  Level Memphis Center
02:19PM 34.5247 -90.7631 226° Southwest 328 377 40,000  Level Memphis Center
02:20PM 34.4597 -90.8433 226° Southwest 333 383 40,000  Level Memphis Center
02:21PM 34.3989 -90.9158 225° Southwest 339 390 40,000  Level Memphis Center
02:22PM 34.3317 -91.0011 226° Southwest 339 390 40,000  Level Memphis Center
02:23PM 34.2667 -91.0808 225° Southwest 345 397 40,000  Level Memphis Center
02:24PM 34.2014 -91.1583 224° Southwest 338 389 40,000  Level Memphis Center
02:25PM 34.1406 -91.2381 227° Southwest 333 383 40,000  Level Memphis Center
02:26PM 34.0753 -91.3150 224° Southwest 328 377 40,000  Level Memphis Center
02:27PM 34.0100 -91.3922 224° Southwest 323 372 40,000  Level Memphis Center
02:28PM 33.9403 -91.4789 226° Southwest 328 377 40,000  Level Memphis Center
02:30PM 33.8053 -91.6497 226° Southwest 331 381 40,000  Level Fort Worth Center
02:31PM 33.7400 -91.7289 225° Southwest 338 389 40,000  Level Fort Worth Center
02:32PM 33.6725 -91.8081 224° Southwest 338 389 40,000  Level Fort Worth Center
02:33PM 33.6072 -91.8869 225° Southwest 344 396 40,000  Level Fort Worth Center
02:34PM 33.5378 -91.9686 224° Southwest 344 396 40,000  Level Fort Worth Center
02:35PM 33.4722 -92.0472 225° Southwest 344 396 40,000  Level Fort Worth Center
02:36PM 33.4089 -92.1283 227° Southwest 344 396 40,000  Level Fort Worth Center
02:37PM 33.3414 -92.2069 224° Southwest 344 396 40,000  Level Fort Worth Center
02:38PM 33.2717 -92.2881 224° Southwest 344 396 40,000  Level Fort Worth Center
02:39PM 33.2100 -92.3661 227° Southwest 344 396 40,000  Level Fort Worth Center
02:40PM 33.1403 -92.4469 224° Southwest 344 396 40,000  Level Fort Worth Center
02:41PM 33.0722 -92.5250 224° Southwest 344 396 40,000  Level Fort Worth Center
02:42PM 33.0044 -92.6056 225° Southwest 344 396 40,000  Level Fort Worth Center
02:43PM 32.9386 -92.6808 224° Southwest 344 396 40,000  Level Fort Worth Center
02:44PM 32.8764 -92.7536 224° Southwest 344 396 40,000  Level Fort Worth Center
02:45PM 32.8086 -92.8336 225° Southwest 344 396 40,000  Level Fort Worth Center
02:46PM 32.7364 -92.9164 224° Southwest 344 396 40,000  Level Fort Worth Center
02:47PM 32.6661 -92.9964 224° Southwest 344 396 40,000  Level Fort Worth Center
02:48PM 32.6000 -93.0761 225° Southwest 349 402 40,000  Level Fort Worth Center
02:49PM 32.5256 -93.1608 224° Southwest 349 402 40,000  Level Fort Worth Center
02:50PM 32.4575 -93.2403 225° Southwest 349 402 40,000  Level Fort Worth Center
02:51PM 32.3850 -93.3250 225° Southwest 354 407 40,000  Level Fort Worth Center
02:52PM 32.3144 -93.4042 223° Southwest 354 407 40,000  Level Fort Worth Center
02:53PM 32.2400 -93.4911 225° Southwest 359 413 40,000  Level Fort Worth Center
02:54PM 32.1714 -93.5700 224° Southwest 364 419 40,000  Level Fort Worth Center
02:55PM 32.1108 -93.6450 226° Southwest 362 417 40,000  Level Houston Center
02:56PM 32.0397 -93.7269 224° Southwest 359 413 40,000  Level Houston Center
02:57PM 31.9681 -93.8072 224° Southwest 356 410 40,000  Level Houston Center
02:58PM 31.8969 -93.8889 224° Southwest 359 413 40,000  Level Houston Center
02:59PM 31.8242 -93.9728 224° Southwest 364 419 40,000  Level Houston Center
03:00PM 31.7500 -94.0564 224° Southwest 364 419 40,000  Level Houston Center
03:01PM 31.6628 -94.1558 224° Southwest 362 417 40,000  Level Houston Center
03:02PM 31.5892 -94.2386 224° Southwest 365 420 40,000  Level Houston Center
03:03PM 31.5161 -94.3211 224° Southwest 365 420 40,000  Level Houston Center
03:04PM 31.4419 -94.4042 224° Southwest 367 422 40,000  Level Houston Center
03:05PM 31.3681 -94.4875 224° Southwest 369 425 40,000  Level Houston Center
03:06PM 31.2922 -94.5711 223° Southwest 372 428 40,000  Level Houston Center
03:07PM 31.2111 -94.6644 225° Southwest 373 429 40,000  Level Houston Center
03:08PM 31.1403 -94.7497 226° Southwest 367 422 40,000  Level Houston Center
03:09PM 31.0678 -94.8650 234° Southwest 370 426 40,000  Level Houston Center
03:11PM 31.0067 -94.9600 233° Southwest 366 421 40,000  Level Houston Center
03:12PM 30.9461 -95.0556 234° Southwest 367 422 40,000  Level Houston Center
03:13PM 30.8794 -95.1447 229° Southwest 365 420 40,000  Level Houston Center
03:14PM 30.8131 -95.2350 229° Southwest 366 421 40,000  Level Houston Center
03:15PM 30.7464 -95.3244 229° Southwest 364 419 40,000  Level Houston Center
03:16PM 30.6683 -95.4303 229° Southwest 359 413 40,000  Level Houston Center
03:17PM 30.6089 -95.5083 229° Southwest 362 417 40,000  Level Houston Center
03:18PM 30.5389 -95.5900 225° Southwest 361 415 40,000  Level Houston Center
03:19PM 30.4525 -95.6808 222° Southwest 352 405 40,000  Level Houston Center
03:20PM 30.3892 -95.7719 231° Southwest 362 417 40,000  Level Houston Center
03:21PM 30.3239 -95.8628 230° Southwest 367 422 40,000  Level Houston Center
03:22PM 30.2586 -95.9525 230° Southwest 366 421 40,000  Level Houston Center
03:23PM 30.1872 -96.0517 230° Southwest 358 412 40,000  Level Houston Center
03:24PM 30.1339 -96.1481 237° Southwest 363 418 40,000  Level Houston Center
03:25PM 30.1211 -96.2614 263° West 356 410 40,000 -60 Level Houston Center
03:26PM 30.1069 -96.3750 262° West 356 410 39,900 -900 Descending Houston Center
03:27PM 30.0900 -96.4847 260° West 352 405 38,200 -1,920 Descending Houston Center
03:28PM 30.0722 -96.6175 261° West 352 405 35,900 -2,040 Descending Houston Center
03:29PM 30.0578 -96.7264 261° West 347 399 34,000 -1,920 Descending Houston Center
03:30PM 30.0425 -96.8367 261° West 350 403 32,000 -1,920 Descending Houston Center
03:31PM 30.0272 -96.9497 261° West 356 410 30,100 -2,040 Descending Houston Center
03:32PM 30.0092 -97.0703 260° West 378 435 27,800 -2,520 Descending Houston Center
03:33PM 29.9894 -97.2175 261° West 388 447 24,900 -2,580 Descending Houston Center
03:34PM 29.9722 -97.3389 261° West 386 444 22,500 -2,160 Descending Houston Center
03:35PM 29.9597 -97.4317 261° West 376 433 20,700 -2,160 Descending Houston Center
03:35PM 29.9558 -97.4564 260° West 373 429 20,300 -2,340 Descending Houston Center
03:36PM 29.9397 -97.5694 261° West 361 415 18,100 -2,460 Descending Houston Center
03:36PM 29.9367 -97.5861 258° West 359 413 17,800 -2,340 Descending Houston Center
03:37PM 29.9219 -97.6875 261° West 352 405 15,800 -2,040 Descending Houston Center
03:37PM 29.9214 -97.6967 266° West 350 403 15,700 -2,280 Descending Houston Center
03:38PM 29.9058 -97.8053 261° West 345 397 13,500 -2,160 Descending Houston Center
03:38PM 29.9042 -97.8058 196° South 348 400 13,500 -1,140 Level Houston Center
03:39PM 29.8800 -97.9075 255° West 327 376 12,400 -1,200 Descending Houston Center
03:40PM 29.8767 -97.9144 241° Southwest 319 367 12,300 -1,920 Descending Houston Center
03:40PM 29.8436 -97.9892 243° Southwest 273 314 10,500 -1,920 Descending Houston Center
03:41PM 29.8403 -97.9964 242° Southwest 283 326 10,300 -1,980 Descending Houston Center
03:41PM 29.8111 -98.0656 244° Southwest 253 291 8,500 -2,040 Descending Houston Center
03:42PM 29.8069 -98.0772 248° West 261 300 8,200 -1,260 Descending Houston Center
03:43PM 29.7756 -98.2239 256° West 259 298 6,000 -1,080 Descending Houston Center
03:44PM 29.7703 -98.2417 251° West 258 297 6,000 -720 Level Houston Center
03:44PM 29.7561 -98.3083 256° West 257 296 5,300 -900 Descending Houston Center
03:45PM 29.7531 -98.3203 254° West 255 293 5,100 -300 Descending Houston Center
03:46PM 29.7383 -98.3875 256° West 257 296 5,000 -120 Descending Houston Center
03:46PM 29.7378 -98.4072 268° West 261 300 5,000 -1,440 Level Houston Center
03:47PM 29.7281 -98.4808 261° West 240 276 3,200 -1,140 Descending Houston Center
03:48PM 29.6869 -98.5139 215° Southwest 228 262 3,000 -240 Descending Houston Center
03:48PM 29.6706 -98.5244 209° Southwest 231 266 3,000 -240 Level Houston Center
03:49PM 29.6292 -98.5497 208° Southwest 215 247 2,800 -240 Descending Houston Center
03:49PM 29.6167 -98.5531 193° South 220 253 2,800 -720 Level Houston Center
03:50PM 29.5819 -98.5383 160° South 177 204 2,100 -1,020 Descending Houston Center
03:50PM 29.5742 -98.5258 126° Southeast 170 196 1,800 -840 Descending Houston Center
03:51PM 29.5558 -98.5031 133° Southeast 127 146 1,300 -720 Descending Houston Center
03:51PM 29.5503 -98.4933 123° Southeast 140 161 1,100 -600 Descending Houston Center
03:53PM 29.5340 -98.4691 215° Southwest  Level Estimated
04:00PM 29.5333 -98.4667 16° North  Level FlightAware Approximate
04:01PM 29.5340 -98.4691 16° North  Level Estimated